Airfield :







YOU CAN JOIN US ON...

 
LOGIN :

Register | Disclaimer

   EN    FR    IT 

 









Legend :    VFR   Marginal VFR   IFR   Intensive IFR   Very Intensive IFR
Visi :
Ceiling :
>= 8 km
>= 3000ft
5 to 8 km
1000 to 3000 ft
1500m to 5 km
500 to 1000 ft
800 to 1500m
200 to 500 ft
< 800m
< 200 ft
Symbols :   Thunderstorms  Fog  Heavy snow  Heavy precipitations  Wind > 20 kt






- Airport Elevation : 1005 ft
- IATA code : YAH


CYAH - La Grande-4

CURRENT METAR :
  • 080700Z AUTO 26018G28KT 1 1/4SM -SN BKN021 OVC033 M20/M23 A2952 RMK SLP028

EXPIRED METARs :
  • 080600Z AUTO 27019G32KT 1SM -SN OVC019 M19/M22 A2948 RMK VIS VRB 3/4-2 1/2 SLP014
  • 080539Z AUTO 27021G29KT 3/4SM -SN BLSN OVC019 M18/M21 A2946 RMK SLP011
  • 080500Z AUTO 25019G29KT 1 1/4SM -SN BKN019 OVC041 M16/M20 A2943 RMK VIS VRB 3/4-2 1/4 SLP994

Expired Forecast.
CZUL FIR / North America



MET'MAP, your aeronautical weather chart ! - Copyright ORBIFLY December 2007 - Disclaimer

ORBIFLY MET'MAP TEAM :

Programming & Development : Alexandra Zaïnal
Original concept : Baudouin d'Aumeries
Technical & hardware support : Manuel Goepfert
Assistance : Marc-Olivier Méhu




SOURCES & CREDITS :

   NOAA